Time;durP1;ratioP1;P1;durP2;ratioP2;P2;SDS_P1;SDS_P2;PMS_P1;PMS_P2;Temp;Humidity;BMP_temperature;BMP_pressure;BME280_temperature;BME280_humidity;BME280_pressure;Samples;Min_cycle;Max_cycle;Signal;HPM_P1;HPM_P2
2024/01/22 00:02:00;;;;;;;24.35;3.88;;;11.40;99.90;;;;;;5031942;28;20356;-53
2024/01/22 00:04:25;;;;;;;22.40;3.00;;;11.30;99.90;;;;;;5031800;28;20507;-53
2024/01/22 00:06:54;;;;;;;15.63;2.45;;;11.30;99.90;;;;;;5031788;28;20025;-55
2024/01/22 00:09:20;;;;;;;20.38;3.83;;;11.30;99.90;;;;;;5031886;28;20029;-57
2024/01/22 00:11:46;;;;;;;24.35;2.88;;;11.30;99.90;;;;;;5031415;28;20041;-55
2024/01/22 00:14:12;;;;;;;21.45;5.07;;;11.30;99.90;;;;;;5031397;28;20053;-57
2024/01/22 00:16:39;;;;;;;16.98;2.28;;;11.30;99.90;;;;;;5031562;28;20025;-58
2024/01/22 00:19:07;;;;;;;18.17;2.97;;;11.30;99.90;;;;;;5031541;28;20033;-58
2024/01/22 00:21:33;;;;;;;19.50;3.58;;;11.30;99.90;;;;;;5031503;28;20553;-53
2024/01/22 00:23:59;;;;;;;26.13;4.80;;;11.30;99.90;;;;;;5031222;28;20034;-54
2024/01/22 00:26:25;;;;;;;17.35;3.05;;;11.20;99.90;;;;;;5031204;28;20033;-56
2024/01/22 00:28:50;;;;;;;16.10;2.85;;;11.20;99.90;;;;;;5031210;28;20097;-57
2024/01/22 00:31:16;;;;;;;18.30;3.60;;;11.20;99.90;;;;;;5031287;28;20392;-57
2024/01/22 00:33:43;;;;;;;27.27;4.03;;;11.20;99.90;;;;;;5029814;28;20060;-55
2024/01/22 00:36:14;;;;;;;21.10;3.30;;;11.20;99.90;;;;;;5031053;28;20129;-57
2024/01/22 00:38:41;;;;;;;22.40;4.00;;;11.20;99.90;;;;;;5029565;28;20473;-57
2024/01/22 00:41:07;;;;;;;13.82;2.65;;;11.20;99.90;;;;;;5017395;28;20041;-58
2024/01/22 00:43:33;;;;;;;15.52;3.08;;;11.20;99.90;;;;;;5031044;28;20027;-57
2024/01/22 00:46:01;;;;;;;16.38;2.78;;;11.20;99.90;;;;;;5029787;28;20025;-56
2024/01/22 00:48:26;;;;;;;16.55;2.75;;;11.20;99.90;;;;;;5030926;28;20036;-53
2024/01/22 00:50:52;;;;;;;10.20;2.28;;;11.20;99.90;;;;;;5030817;28;20025;-57
2024/01/22 00:53:17;;;;;;;16.50;2.90;;;11.20;99.90;;;;;;5030747;28;20037;-55
2024/01/22 00:55:43;;;;;;;14.85;2.17;;;11.20;99.90;;;;;;5030541;28;20088;-59
2024/01/22 00:58:09;;;;;;;10.43;3.20;;;11.20;99.90;;;;;;5030797;28;20178;-54
2024/01/22 01:00:34;;;;;;;17.20;2.13;;;11.20;99.90;;;;;;5030873;28;20033;-56
2024/01/22 01:03:00;;;;;;;11.43;2.58;;;11.20;99.90;;;;;;5030539;28;20111;-55
2024/01/22 01:05:26;;;;;;;8.80;2.30;;;11.20;99.90;;;;;;5030730;28;20017;-55
2024/01/22 01:07:51;;;;;;;19.88;2.88;;;11.30;99.90;;;;;;5030566;28;20053;-57
2024/01/22 01:10:17;;;;;;;16.63;2.58;;;11.30;99.90;;;;;;5030122;28;20203;-59
2024/01/22 01:12:43;;;;;;;17.10;2.35;;;11.30;99.90;;;;;;5030601;28;20042;-55
2024/01/22 01:15:09;;;;;;;14.77;1.95;;;11.30;99.90;;;;;;5030273;28;20087;-53
2024/01/22 01:17:36;;;;;;;10.13;2.85;;;11.30;99.90;;;;;;5030714;28;20119;-57
2024/01/22 01:20:03;;;;;;;21.52;3.42;;;11.30;99.90;;;;;;5030299;28;20176;-52
2024/01/22 01:22:30;;;;;;;13.95;2.25;;;11.40;99.90;;;;;;5030362;28;20032;-55
2024/01/22 01:24:55;;;;;;;12.40;2.67;;;11.30;99.90;;;;;;5030827;28;20044;-53
2024/01/22 01:27:21;;;;;;;8.68;2.22;;;11.40;99.90;;;;;;5028985;28;20108;-57
2024/01/22 01:29:47;;;;;;;18.83;2.33;;;11.40;99.90;;;;;;5030358;28;20051;-59
2024/01/22 01:32:12;;;;;;;15.23;2.08;;;11.40;99.90;;;;;;5030152;28;20037;-58
2024/01/22 01:34:38;;;;;;;12.98;2.40;;;11.30;99.90;;;;;;5028919;28;20360;-54
2024/01/22 01:37:04;;;;;;;17.83;2.70;;;11.30;99.90;;;;;;5029971;28;20027;-53
2024/01/22 01:39:30;;;;;;;8.52;1.63;;;11.40;99.90;;;;;;5030025;28;20031;-55
2024/01/22 01:41:55;;;;;;;12.35;2.22;;;11.40;99.90;;;;;;5030323;28;20025;-57
2024/01/22 01:44:47;;;;;;;19.00;2.67;;;11.40;99.90;;;;;;5029981;28;20542;-57
2024/01/22 01:47:12;;;;;;;14.57;2.45;;;11.40;99.90;;;;;;5029782;28;20117;-55
2024/01/22 01:49:38;;;;;;;12.20;3.03;;;11.40;99.90;;;;;;5029933;28;20100;-55
2024/01/22 01:52:04;;;;;;;16.65;2.95;;;11.40;99.90;;;;;;5030173;28;20383;-55
2024/01/22 01:54:30;;;;;;;13.77;2.33;;;11.50;99.90;;;;;;5030131;28;20048;-55
2024/01/22 01:56:56;;;;;;;13.70;2.30;;;11.50;99.90;;;;;;5030019;28;20388;-55
2024/01/22 01:59:23;;;;;;;17.17;2.92;;;11.50;99.90;;;;;;5029801;28;20033;-55
2024/01/22 02:01:49;;;;;;;14.63;2.83;;;11.50;99.90;;;;;;5028679;28;20033;-58
2024/01/22 02:04:14;;;;;;;6.18;1.63;;;11.50;99.90;;;;;;5029797;28;20036;-56
2024/01/22 02:06:41;;;;;;;15.35;2.40;;;11.50;99.90;;;;;;5029871;28;20048;-56
2024/01/22 02:09:07;;;;;;;11.68;2.33;;;11.50;99.90;;;;;;5029760;28;20029;-54
2024/01/22 02:11:32;;;;;;;12.90;2.45;;;11.50;99.90;;;;;;5029825;28;20032;-55
2024/01/22 02:13:58;;;;;;;17.15;2.63;;;11.50;99.90;;;;;;5029489;28;20119;-54
2024/01/22 02:16:23;;;;;;;26.17;3.50;;;11.50;99.90;;;;;;5031175;28;20030;-57
2024/01/22 02:18:49;;;;;;;18.50;3.28;;;11.50;99.90;;;;;;5033185;28;20029;-54
2024/01/22 02:21:15;;;;;;;9.65;1.98;;;11.50;99.90;;;;;;5033645;28;20025;-55
2024/01/22 02:23:41;;;;;;;20.20;3.05;;;11.50;99.90;;;;;;5033450;28;20097;-58
2024/01/22 02:26:06;;;;;;;23.85;3.05;;;11.50;99.90;;;;;;5033529;28;20029;-55
2024/01/22 02:28:32;;;;;;;21.80;2.95;;;11.50;99.90;;;;;;5033297;28;20022;-56
2024/01/22 02:30:58;;;;;;;21.38;4.00;;;11.50;99.90;;;;;;5033467;28;20174;-57
2024/01/22 02:33:24;;;;;;;23.63;3.72;;;11.60;99.90;;;;;;5033312;28;20924;-53
2024/01/22 02:35:50;;;;;;;32.75;5.50;;;11.60;99.90;;;;;;5033410;28;20025;-54
2024/01/22 02:38:16;;;;;;;23.65;3.78;;;11.60;99.90;;;;;;5033372;28;20033;-57
2024/01/22 02:40:41;;;;;;;24.52;5.50;;;11.60;99.90;;;;;;5033033;28;20041;-51
2024/01/22 02:43:07;;;;;;;34.75;4.47;;;11.60;99.90;;;;;;5033413;28;20024;-51
2024/01/22 02:45:33;;;;;;;28.50;4.10;;;11.60;99.90;;;;;;5031950;28;20388;-51
2024/01/22 02:47:58;;;;;;;25.95;4.40;;;11.60;99.90;;;;;;5033298;28;20021;-54
2024/01/22 02:50:24;;;;;;;19.05;3.35;;;11.50;99.90;;;;;;5033365;28;20037;-55
2024/01/22 02:52:50;;;;;;;29.88;4.80;;;11.60;99.90;;;;;;5032975;28;20026;-54
2024/01/22 02:55:16;;;;;;;27.02;4.43;;;11.60;99.90;;;;;;5033158;28;20029;-53
2024/01/22 02:57:41;;;;;;;22.63;4.07;;;11.60;99.90;;;;;;5032963;28;20081;-51
2024/01/22 03:00:07;;;;;;;32.38;4.13;;;11.60;99.90;;;;;;5031529;28;20542;-55
2024/01/22 03:02:33;;;;;;;23.40;3.67;;;11.60;99.90;;;;;;5032608;28;20510;-51
2024/01/22 03:04:59;;;;;;;26.08;3.92;;;11.60;99.90;;;;;;5032833;28;20078;-50
2024/01/22 03:07:25;;;;;;;29.50;4.45;;;11.60;99.90;;;;;;5032854;28;20498;-51
2024/01/22 03:09:50;;;;;;;33.67;4.55;;;11.50;99.90;;;;;;5032651;28;20453;-53
2024/01/22 03:12:16;;;;;;;22.48;3.88;;;11.50;99.90;;;;;;5032389;28;20444;-50
2024/01/22 03:14:41;;;;;;;24.45;3.55;;;11.50;99.90;;;;;;5032635;28;20029;-50
2024/01/22 03:17:09;;;;;;;22.90;3.75;;;11.50;99.90;;;;;;5032443;28;20021;-54
2024/01/22 03:19:36;;;;;;;26.30;3.88;;;11.50;99.90;;;;;;5032443;28;20042;-56
2024/01/22 03:22:02;;;;;;;33.75;5.00;;;11.50;99.90;;;;;;5030909;28;20335;-54
2024/01/22 03:24:28;;;;;;;21.52;3.72;;;11.50;99.90;;;;;;5032457;28;20022;-53
2024/01/22 03:26:54;;;;;;;23.45;3.95;;;11.40;99.90;;;;;;5031633;28;20479;-56
2024/01/22 03:29:19;;;;;;;24.40;4.72;;;11.40;99.90;;;;;;5031467;28;20029;-53
2024/01/22 03:31:45;;;;;;;32.83;4.65;;;11.50;99.90;;;;;;5032087;28;20094;-55
2024/01/22 03:34:10;;;;;;;28.13;4.22;;;11.40;99.90;;;;;;5032177;28;20472;-58
2024/01/22 03:36:37;;;;;;;18.10;3.58;;;11.40;99.90;;;;;;5032166;28;20046;-53
2024/01/22 03:39:03;;;;;;;28.27;5.15;;;11.40;99.90;;;;;;5031633;28;20025;-54
2024/01/22 03:41:29;;;;;;;16.70;3.53;;;11.30;99.90;;;;;;5032028;28;20484;-52
2024/01/22 03:43:54;;;;;;;32.78;4.47;;;11.20;99.90;;;;;;5031827;28;20045;-52
2024/01/22 03:46:20;;;;;;;30.05;4.22;;;11.20;99.90;;;;;;5031744;28;20048;-53
2024/01/22 03:48:45;;;;;;;35.00;4.82;;;11.10;99.90;;;;;;5031699;28;20033;-55
2024/01/22 03:51:11;;;;;;;35.70;4.57;;;11.00;99.90;;;;;;5031676;28;20021;-55
2024/01/22 03:53:37;;;;;;;30.27;4.03;;;11.00;99.90;;;;;;5031857;28;20174;-55
2024/01/22 03:56:05;;;;;;;32.00;7.00;;;11.00;99.90;;;;;;5031572;28;20067;-51
2024/01/22 03:58:32;;;;;;;26.27;3.95;;;11.00;99.90;;;;;;5031835;28;20431;-54
2024/01/22 04:00:58;;;;;;;36.45;6.85;;;10.90;99.90;;;;;;5031461;28;20037;-51
2024/01/22 04:03:24;;;;;;;45.80;6.07;;;11.00;99.90;;;;;;5031745;28;20025;-53
2024/01/22 04:05:50;;;;;;;25.70;4.97;;;11.00;99.90;;;;;;5031590;28;20503;-47
2024/01/22 04:08:15;;;;;;;44.90;4.70;;;11.10;99.90;;;;;;5031646;28;20091;-55
2024/01/22 04:10:41;;;;;;;24.90;5.28;;;11.10;99.90;;;;;;5031697;28;20415;-48
2024/01/22 04:13:06;;;;;;;44.47;7.00;;;11.10;99.90;;;;;;5031301;28;20530;-50
2024/01/22 04:15:33;;;;;;;36.53;6.07;;;11.20;99.90;;;;;;5031155;28;20074;-57
2024/01/22 04:17:58;;;;;;;41.17;6.88;;;11.20;99.90;;;;;;5031307;28;20392;-52
2024/01/22 04:20:24;;;;;;;27.73;4.97;;;11.20;99.90;;;;;;5031299;28;20041;-52
2024/01/22 04:22:51;;;;;;;30.90;4.38;;;11.20;99.90;;;;;;5031394;28;20408;-48
2024/01/22 04:25:17;;;;;;;32.60;6.88;;;11.30;99.90;;;;;;5031035;28;20032;-53
2024/01/22 04:27:43;;;;;;;32.95;6.30;;;11.30;99.90;;;;;;5031280;28;20017;-52
2024/01/22 04:30:09;;;;;;;35.88;7.13;;;11.40;99.90;;;;;;5031072;28;20097;-55
2024/01/22 04:32:35;;;;;;;35.70;6.13;;;11.40;99.90;;;;;;5031185;28;20500;-49
2024/01/22 04:35:01;;;;;;;39.33;6.20;;;11.40;99.90;;;;;;5031223;28;20030;-48
2024/01/22 04:37:27;;;;;;;39.63;6.28;;;11.50;99.90;;;;;;5030877;28;20436;-49
2024/01/22 04:39:53;;;;;;;35.55;6.30;;;11.50;99.90;;;;;;5029365;28;20089;-52
2024/01/22 04:42:20;;;;;;;37.63;7.03;;;11.60;99.90;;;;;;5030901;28;20024;-53
2024/01/22 04:44:46;;;;;;;45.78;6.32;;;11.60;99.90;;;;;;5030953;28;20477;-56
2024/01/22 04:47:12;;;;;;;39.45;5.88;;;11.60;99.90;;;;;;5030924;28;20025;-52
2024/01/22 04:49:38;;;;;;;33.15;6.28;;;11.60;99.90;;;;;;5030998;28;20032;-54
2024/01/22 04:52:04;;;;;;;43.70;6.10;;;11.60;99.90;;;;;;5030798;28;20068;-48
2024/01/22 04:54:29;;;;;;;30.67;4.40;;;11.60;99.90;;;;;;5031083;28;20772;-52
2024/01/22 04:56:55;;;;;;;37.42;5.72;;;11.60;99.90;;;;;;5030511;28;20033;-49
2024/01/22 04:59:21;;;;;;;36.35;5.20;;;11.60;99.90;;;;;;5030731;28;20749;-52
2024/01/22 05:01:47;;;;;;;33.58;5.28;;;11.60;99.90;;;;;;5030870;28;20048;-54
2024/01/22 05:04:12;;;;;;;51.80;7.43;;;11.50;99.90;;;;;;5031057;28;20022;-52
2024/01/22 05:06:38;;;;;;;37.10;5.35;;;11.50;99.90;;;;;;5031065;28;20493;-49
2024/01/22 05:09:04;;;;;;;40.80;5.35;;;11.50;99.90;;;;;;5030596;28;20025;-50
2024/01/22 05:11:31;;;;;;;40.00;6.32;;;11.40;99.90;;;;;;5030930;28;20029;-53
2024/01/22 05:13:57;;;;;;;44.97;6.72;;;11.40;99.90;;;;;;5030397;28;20092;-53
2024/01/22 05:16:23;;;;;;;41.30;7.05;;;11.40;99.90;;;;;;5029226;28;20480;-51
2024/01/22 05:18:51;;;;;;;44.38;7.40;;;11.40;99.90;;;;;;5030526;28;20036;-51
2024/01/22 05:21:17;;;;;;;41.45;6.30;;;11.40;99.90;;;;;;5030669;28;20025;-50
2024/01/22 05:23:43;;;;;;;36.63;7.28;;;11.30;99.90;;;;;;5030489;28;20453;-48
2024/01/22 05:26:08;;;;;;;41.08;5.63;;;11.30;99.90;;;;;;5030242;28;20025;-50
2024/01/22 05:28:35;;;;;;;41.10;6.75;;;11.30;99.90;;;;;;5030265;28;20036;-48
2024/01/22 05:31:01;;;;;;;39.40;6.63;;;11.30;99.90;;;;;;5030470;28;20115;-51
2024/01/22 05:33:27;;;;;;;27.02;5.10;;;11.30;99.90;;;;;;5030299;28;20049;-48
2024/01/22 05:35:53;;;;;;;41.88;5.82;;;11.30;99.90;;;;;;5030198;28;20075;-52
2024/01/22 05:38:19;;;;;;;32.17;6.13;;;11.30;99.90;;;;;;5030432;28;20021;-51
2024/01/22 05:40:45;;;;;;;35.03;6.72;;;11.30;99.90;;;;;;5029991;28;20116;-52
2024/01/22 05:43:11;;;;;;;42.95;6.97;;;11.30;99.90;;;;;;5030036;28;20014;-51
2024/01/22 05:45:36;;;;;;;39.38;7.60;;;11.30;99.90;;;;;;5029646;28;20369;-52
2024/01/22 05:48:03;;;;;;;48.22;6.80;;;11.20;99.90;;;;;;5029481;28;20026;-49
2024/01/22 05:50:29;;;;;;;38.00;6.07;;;11.20;99.90;;;;;;5028392;28;20025;-50
2024/01/22 05:52:54;;;;;;;42.85;6.50;;;11.10;99.90;;;;;;5033881;28;20531;-51
2024/01/22 05:55:20;;;;;;;43.95;7.15;;;11.00;99.90;;;;;;5033616;28;20022;-49
2024/01/22 05:57:47;;;;;;;29.83;6.20;;;11.00;99.90;;;;;;5033757;28;20044;-48
2024/01/22 06:00:13;;;;;;;29.80;5.03;;;11.00;99.90;;;;;;5033494;28;20026;-50
2024/01/22 06:02:43;;;;;;;40.33;7.32;;;10.90;99.90;;;;;;5033741;28;20033;-52
2024/01/22 06:05:11;;;;;;;;;;;11.00;99.90;;;;;;5033934;28;20185;-51
2024/01/22 06:07:37;;;;;;;38.13;5.85;;;10.90;99.90;;;;;;5033574;28;20374;-51
2024/01/22 06:10:05;;;;;;;42.83;5.80;;;10.90;99.90;;;;;;5033392;28;20025;-50
2024/01/22 06:12:30;;;;;;;42.65;6.05;;;10.90;99.90;;;;;;5033408;28;20626;-51
2024/01/22 06:14:57;;;;;;;37.88;6.28;;;10.80;99.90;;;;;;5033409;28;20053;-50
2024/01/22 06:17:23;;;;;;;34.25;5.03;;;10.80;99.90;;;;;;5033508;28;20047;-49
2024/01/22 06:19:49;;;;;;;39.10;6.53;;;10.80;99.90;;;;;;5033416;28;20135;-50
2024/01/22 06:22:15;;;;;;;34.95;5.50;;;10.70;99.90;;;;;;5033391;28;20437;-52
2024/01/22 06:24:41;;;;;;;38.08;5.75;;;10.70;99.90;;;;;;5033359;28;20017;-52
2024/01/22 06:27:07;;;;;;;35.05;5.75;;;10.70;99.90;;;;;;5033096;28;20084;-51
2024/01/22 06:29:35;;;;;;;38.33;6.43;;;10.70;99.90;;;;;;5033525;28;20025;-54
2024/01/22 06:32:01;;;;;;;44.92;5.88;;;10.70;99.90;;;;;;5033181;28;20419;-52
2024/01/22 06:34:27;;;;;;;24.70;4.38;;;10.70;99.90;;;;;;5033174;28;20021;-49
2024/01/22 06:36:52;;;;;;;39.80;6.07;;;10.60;99.90;;;;;;5033275;28;20360;-53
2024/01/22 06:39:18;;;;;;;34.22;6.00;;;10.60;99.90;;;;;;5032912;28;20026;-48
2024/01/22 06:41:45;;;;;;;23.00;5.55;;;10.50;99.90;;;;;;5033226;28;20083;-50
2024/01/22 06:44:10;;;;;;;27.50;5.32;;;10.50;99.90;;;;;;5033049;28;20022;-49
2024/01/22 06:46:36;;;;;;;31.30;5.20;;;10.40;99.90;;;;;;5032964;28;20132;-51
2024/01/22 06:49:02;;;;;;;34.50;5.63;;;10.40;99.90;;;;;;5032659;28;20022;-52
2024/01/22 06:51:29;;;;;;;19.20;3.55;;;10.40;99.90;;;;;;5032702;28;20045;-53
2024/01/22 06:53:55;;;;;;;17.52;3.25;;;10.40;99.90;;;;;;5032834;28;20104;-51
2024/01/22 06:56:22;;;;;;;24.83;3.90;;;10.30;99.90;;;;;;5033054;28;20017;-48
2024/01/22 06:58:48;;;;;;;19.20;3.38;;;10.30;99.90;;;;;;5031312;28;20369;-56
2024/01/22 07:01:14;;;;;;;20.45;3.08;;;10.30;99.90;;;;;;5032809;28;20483;-48
2024/01/22 07:03:40;;;;;;;16.73;3.65;;;10.20;99.90;;;;;;5032457;28;20022;-51
2024/01/22 07:06:05;;;;;;;20.08;3.38;;;10.20;99.90;;;;;;5032590;28;20022;-48
2024/01/22 07:08:31;;;;;;;26.50;4.25;;;10.20;99.90;;;;;;5032305;28;20467;-53
2024/01/22 07:10:58;;;;;;;31.17;5.40;;;10.20;99.90;;;;;;5032527;28;20029;-49
2024/01/22 07:13:23;;;;;;;22.38;5.20;;;10.20;99.90;;;;;;5032357;28;20558;-51
2024/01/22 07:15:49;;;;;;;36.25;5.88;;;10.20;99.90;;;;;;5032385;28;20052;-48
2024/01/22 07:18:15;;;;;;;30.77;4.75;;;10.10;99.90;;;;;;5032310;28;20021;-48
2024/01/22 07:20:41;;;;;;;25.80;4.07;;;10.00;99.90;;;;;;5032118;28;20033;-49
2024/01/22 07:23:07;;;;;;;25.48;4.25;;;10.00;99.90;;;;;;5032273;28;20108;-54
2024/01/22 07:25:36;;;;;;;26.27;4.93;;;10.00;99.90;;;;;;5032150;28;20061;-52
2024/01/22 07:28:03;;;;;;;17.98;2.33;;;10.00;99.90;;;;;;5030767;28;20021;-48
2024/01/22 07:30:29;;;;;;;14.70;3.05;;;10.00;99.90;;;;;;5031885;28;20036;-52
2024/01/22 07:32:54;;;;;;;12.48;2.40;;;10.00;99.90;;;;;;5032111;28;20021;-51
2024/01/22 07:35:20;;;;;;;17.42;2.97;;;10.00;99.90;;;;;;5032258;28;20412;-55
2024/01/22 07:37:46;;;;;;;14.15;2.75;;;9.90;99.90;;;;;;5032015;28;20033;-52
2024/01/22 07:40:11;;;;;;;9.13;1.85;;;9.90;99.90;;;;;;5029238;28;20389;-52
2024/01/22 07:42:41;;;;;;;10.15;2.33;;;9.80;99.90;;;;;;5028787;28;20056;-49
2024/01/22 07:45:08;;;;;;;14.48;2.00;;;9.80;99.90;;;;;;5032039;28;20130;-49
2024/01/22 07:47:34;;;;;;;17.50;2.33;;;9.70;99.90;;;;;;5031615;28;20026;-52
2024/01/22 07:50:01;;;;;;;16.80;2.97;;;9.70;99.90;;;;;;5031689;28;20029;-50
2024/01/22 07:52:26;;;;;;;15.85;2.35;;;9.60;99.90;;;;;;5031898;28;20036;-49
2024/01/22 07:54:52;;;;;;;10.95;1.70;;;9.60;99.90;;;;;;5032227;28;20026;-54
2024/01/22 07:57:18;;;;;;;15.90;3.33;;;9.50;99.90;;;;;;5031981;28;20095;-53
2024/01/22 07:59:44;;;;;;;16.40;2.95;;;9.50;99.90;;;;;;5031905;28;20049;-52
2024/01/22 08:02:09;;;;;;;12.98;2.67;;;9.40;99.90;;;;;;5031651;28;20014;-53
2024/01/22 08:04:36;;;;;;;21.52;2.45;;;9.40;99.90;;;;;;5029572;28;20029;-54
2024/01/22 08:07:03;;;;;;;10.38;2.13;;;9.40;99.90;;;;;;5024575;28;20449;-50
2024/01/22 08:09:32;;;;;;;11.75;1.80;;;9.40;99.90;;;;;;5020961;28;20025;-53
2024/01/22 08:11:57;;;;;;;9.23;2.13;;;9.30;99.90;;;;;;5027568;28;20109;-52
2024/01/22 08:14:23;;;;;;;12.65;1.90;;;9.20;99.90;;;;;;5030708;28;20130;-51
2024/01/22 08:16:49;;;;;;;15.32;2.50;;;9.20;99.90;;;;;;5022749;28;20057;-51
2024/01/22 08:19:16;;;;;;;10.65;2.15;;;9.20;99.90;;;;;;5012781;28;20516;-48
2024/01/22 08:21:41;;;;;;;16.83;2.72;;;9.20;99.90;;;;;;5024128;28;20456;-48
2024/01/22 08:24:07;;;;;;;12.07;1.83;;;9.20;99.90;;;;;;5030401;28;20052;-48
2024/01/22 08:26:32;;;;;;;13.38;2.22;;;9.20;99.90;;;;;;5028873;28;20476;-48
2024/01/22 08:28:58;;;;;;;7.13;1.40;;;9.20;99.90;;;;;;5023514;28;20508;-48
2024/01/22 08:31:24;;;;;;;9.85;2.20;;;9.20;99.90;;;;;;5022473;28;20045;-47
2024/01/22 08:33:50;;;;;;;12.40;2.28;;;9.10;99.90;;;;;;5025065;28;20036;-49
2024/01/22 08:36:16;;;;;;;15.32;2.17;;;9.10;99.90;;;;;;5030710;28;20548;-47
2024/01/22 08:38:41;;;;;;;14.95;2.38;;;9.10;99.90;;;;;;5031215;28;20096;-46
2024/01/22 08:41:08;;;;;;;15.38;3.10;;;9.10;99.90;;;;;;5031147;28;20036;-47
2024/01/22 08:43:34;;;;;;;16.25;3.80;;;9.10;99.90;;;;;;5031892;28;20029;-46
2024/01/22 08:46:00;;;;;;;21.50;4.35;;;9.40;99.90;;;;;;5029621;28;20025;-46
2024/01/22 08:48:26;;;;;;;14.75;5.25;;;9.80;99.90;;;;;;5030811;28;20029;-47
2024/01/22 08:50:52;;;;;;;17.42;4.20;;;10.20;99.90;;;;;;5030982;28;20048;-46
2024/01/22 08:53:17;;;;;;;13.13;3.22;;;10.70;99.90;;;;;;5031308;28;20472;-50
2024/01/22 08:55:43;;;;;;;11.43;1.50;;;11.10;99.90;;;;;;5031106;28;20482;-47
2024/01/22 08:58:09;;;;;;;13.75;1.85;;;11.50;99.90;;;;;;5030797;28;20079;-48
2024/01/22 09:00:36;;;;;;;11.73;2.20;;;11.70;99.90;;;;;;5030180;28;20029;-48
2024/01/22 09:03:01;;;;;;;9.00;2.17;;;11.90;99.90;;;;;;5023448;28;20423;-48
2024/01/22 09:05:27;;;;;;;12.82;1.92;;;12.00;99.90;;;;;;5030429;28;20083;-49
2024/01/22 09:07:53;;;;;;;12.13;2.05;;;12.20;99.90;;;;;;5030648;28;20031;-49
2024/01/22 09:10:18;;;;;;;16.15;2.90;;;12.40;99.90;;;;;;5030102;28;20360;-50
2024/01/22 09:12:45;;;;;;;14.45;2.55;;;12.50;99.90;;;;;;5028236;28;20039;-51
2024/01/22 09:15:11;;;;;;;9.38;1.98;;;12.50;99.90;;;;;;5028531;28;20515;-54
2024/01/22 09:17:37;;;;;;;9.00;1.98;;;12.70;99.90;;;;;;5027062;28;20673;-51
2024/01/22 09:20:04;;;;;;;10.32;2.58;;;12.70;99.90;;;;;;5028640;28;20025;-47
2024/01/22 09:22:30;;;;;;;15.45;2.83;;;12.40;99.90;;;;;;5025001;28;20472;-48
2024/01/22 09:24:55;;;;;;;13.55;2.42;;;11.60;99.90;;;;;;5024735;28;20057;-49
2024/01/22 09:27:21;;;;;;;13.63;1.90;;;11.20;99.90;;;;;;5013906;28;20022;-47
2024/01/22 09:29:47;;;;;;;12.25;2.35;;;10.90;99.90;;;;;;5016804;28;20034;-47
2024/01/22 09:32:12;;;;;;;14.23;2.88;;;10.80;99.90;;;;;;5014975;28;20026;-49
2024/01/22 09:34:39;;;;;;;10.00;2.05;;;10.80;99.90;;;;;;5016924;28;20130;-47
2024/01/22 09:37:05;;;;;;;18.02;2.35;;;10.80;99.90;;;;;;5014322;28;20026;-47
2024/01/22 09:39:32;;;;;;;8.68;2.42;;;10.70;99.90;;;;;;5021372;28;20499;-49
2024/01/22 09:41:59;;;;;;;12.98;2.38;;;10.70;99.90;;;;;;5019800;28;20104;-50
2024/01/22 09:44:35;;;;;;;16.92;3.25;;;10.70;99.90;;;;;;5016545;28;20036;-57
2024/01/22 09:47:02;;;;;;;14.88;3.00;;;10.70;99.90;;;;;;5024749;28;20025;-50
2024/01/22 09:49:28;;;;;;;15.45;2.63;;;10.70;99.90;;;;;;5018430;28;20037;-52
2024/01/22 09:51:54;;;;;;;14.65;3.00;;;10.80;99.90;;;;;;5029082;28;20179;-51
2024/01/22 09:54:22;;;;;;;13.85;3.33;;;11.00;99.90;;;;;;5029969;28;20053;-46
2024/01/22 09:56:55;;;;;;;16.63;3.10;;;11.30;99.90;;;;;;5029714;28;20044;-51
2024/01/22 09:59:23;;;;;;;17.73;3.38;;;11.60;99.90;;;;;;5017157;28;20037;-46
2024/01/22 10:01:50;;;;;;;15.98;2.47;;;11.60;99.90;;;;;;5026013;28;20049;-50
2024/01/22 10:04:16;;;;;;;17.23;2.53;;;12.20;99.90;;;;;;5028656;28;20026;-47
2024/01/22 10:06:44;;;;;;;14.05;2.63;;;12.80;99.90;;;;;;5027356;28;20056;-48
2024/01/22 10:09:10;;;;;;;10.73;2.25;;;13.30;99.90;;;;;;5026633;28;20530;-51
2024/01/22 10:11:36;;;;;;;12.32;2.65;;;13.50;99.90;;;;;;5028364;28;20113;-48
2024/01/22 10:14:02;;;;;;;13.90;2.55;;;13.00;99.90;;;;;;5026711;28;20448;-45
2024/01/22 10:16:30;;;;;;;13.63;2.17;;;12.40;99.90;;;;;;5018344;28;20239;-48
2024/01/22 10:19:05;;;;;;;11.07;1.73;;;11.80;99.90;;;;;;5021097;28;20026;-49
2024/01/22 10:21:31;;;;;;;13.02;2.63;;;11.30;99.90;;;;;;5018235;28;20057;-49
2024/01/22 10:24:01;;;;;;;14.07;2.20;;;11.10;99.90;;;;;;5012871;28;20053;-48
2024/01/22 10:26:28;;;;;;;14.57;2.38;;;10.90;99.90;;;;;;5029406;28;20032;-53
2024/01/22 10:29:05;;;;;;;24.45;3.53;;;10.70;99.90;;;;;;5030392;28;20028;-49
2024/01/22 10:31:31;;;;;;;17.85;3.47;;;10.70;99.90;;;;;;5034029;28;20390;-51
2024/01/22 10:34:04;;;;;;;13.43;2.25;;;10.60;99.90;;;;;;5034828;28;20033;-47
2024/01/22 10:36:29;;;;;;;15.55;2.83;;;10.90;99.90;;;;;;5039213;28;20025;-50
2024/01/22 10:39:04;;;;;;;17.05;2.67;;;12.00;99.90;;;;;;5032654;28;20055;-51
2024/01/22 10:41:31;;;;;;;11.02;1.92;;;12.80;99.90;;;;;;5037969;28;20029;-50
2024/01/22 10:43:58;;;;;;;15.88;2.95;;;12.80;99.90;;;;;;5032042;28;20034;-47
2024/01/22 10:46:24;;;;;;;13.18;2.63;;;13.00;99.90;;;;;;5032536;28;20095;-51
2024/01/22 10:48:51;;;;;;;5.90;1.65;;;13.50;99.90;;;;;;5018067;28;20506;-51
2024/01/22 10:51:18;;;;;;;14.95;3.25;;;14.50;99.90;;;;;;5042522;28;20476;-47
2024/01/22 10:53:45;;;;;;;11.80;2.00;;;15.00;99.90;;;;;;5028430;28;20037;-50
2024/01/22 10:56:26;;;;;;;14.35;1.90;;;15.10;99.90;;;;;;5030995;28;20486;-50
2024/01/22 10:58:55;;;;;;;9.32;2.00;;;15.50;99.90;;;;;;5022504;28;20041;-49
2024/01/22 11:01:24;;;;;;;15.40;2.50;;;15.20;99.90;;;;;;5034223;28;20401;-59
2024/01/22 11:03:52;;;;;;;18.33;2.50;;;15.00;99.90;;;;;;5042635;28;20503;-59
2024/01/22 11:06:27;;;;;;;13.18;2.10;;;15.10;99.90;;;;;;5034194;28;20029;-57
2024/01/22 11:08:55;;;;;;;16.17;2.55;;;14.80;99.90;;;;;;5032586;28;20013;-59
2024/01/22 11:11:24;;;;;;;16.98;2.45;;;14.00;99.90;;;;;;5034594;28;20408;-58
2024/01/22 11:13:51;;;;;;;15.30;3.07;;;13.00;99.90;;;;;;5031339;28;20048;-47
2024/01/22 11:16:18;;;;;;;17.48;2.75;;;12.40;99.90;;;;;;5032166;28;20029;-48
2024/01/22 11:19:01;;;;;;;13.82;2.63;;;11.90;99.90;;;;;;5030728;28;20033;-49
2024/01/22 11:21:42;;;;;;;15.10;2.28;;;11.50;99.90;;;;;;5031514;28;20041;-51
2024/01/22 11:24:16;;;;;;;11.43;2.28;;;11.70;99.90;;;;;;5034294;28;20075;-47
2024/01/22 11:26:44;;;;;;;20.58;3.13;;;12.00;99.90;;;;;;5029294;28;20030;-49
2024/01/22 11:29:17;;;;;;;13.63;2.65;;;12.60;99.90;;;;;;5028927;28;20030;-53
2024/01/22 11:31:42;;;;;;;9.32;1.77;;;13.50;99.90;;;;;;5030378;28;20435;-52
2024/01/22 11:34:10;;;;;;;20.20;2.20;;;13.70;99.90;;;;;;5032406;28;20025;-50
2024/01/22 11:36:53;;;;;;;9.73;1.60;;;14.00;99.90;;;;;;5030814;28;20080;-53
2024/01/22 11:39:42;;;;;;;14.13;2.15;;;14.00;99.90;;;;;;5032109;28;20531;-47
2024/01/22 11:42:22;;;;;;;10.23;1.70;;;13.70;99.90;;;;;;5025238;28;20099;-50
2024/01/22 11:44:49;;;;;;;9.75;1.38;;;13.20;99.90;;;;;;5031983;28;20029;-50
2024/01/22 11:47:16;;;;;;;10.05;1.80;;;13.30;99.90;;;;;;5031817;28;20033;-54
2024/01/22 11:49:42;;;;;;;11.30;1.67;;;13.30;99.90;;;;;;5030570;28;20049;-51
2024/01/22 11:52:11;;;;;;;10.70;2.00;;;13.50;99.90;;;;;;5031738;28;20122;-56
2024/01/22 11:54:37;;;;;;;5.03;1.48;;;13.70;99.90;;;;;;5031881;28;20029;-45
2024/01/22 11:57:03;;;;;;;10.38;2.15;;;14.10;99.90;;;;;;5031072;28;20032;-52
2024/01/22 11:59:29;;;;;;;7.45;1.63;;;13.90;99.90;;;;;;5023014;28;20038;-53
2024/01/22 12:02:10;;;;;;;13.77;2.17;;;13.30;99.90;;;;;;5030846;28;20481;-48
2024/01/22 12:04:35;;;;;;;7.63;1.63;;;13.50;99.90;;;;;;5031426;28;20461;-51
2024/01/22 12:07:02;;;;;;;14.43;2.10;;;14.00;99.90;;;;;;5031277;28;20382;-53
2024/01/22 12:09:34;;;;;;;8.07;2.03;;;13.40;99.90;;;;;;5031673;28;20083;-56
2024/01/22 12:12:04;;;;;;;9.18;1.75;;;13.20;99.90;;;;;;5031279;28;20018;-48
2024/01/22 12:14:30;;;;;;;6.70;1.67;;;13.20;99.90;;;;;;5020646;28;20148;-56
2024/01/22 12:17:00;;;;;;;9.25;2.00;;;13.00;99.90;;;;;;5031384;28;20063;-53
2024/01/22 12:19:26;;;;;;;9.52;1.40;;;13.10;99.90;;;;;;5031718;28;20464;-56
2024/01/22 12:21:51;;;;;;;8.18;2.47;;;13.80;99.90;;;;;;5030250;28;20040;-49
2024/01/22 12:24:17;;;;;;;10.88;2.40;;;13.90;99.90;;;;;;5028843;28;20044;-50
2024/01/22 12:26:43;;;;;;;13.25;2.00;;;14.00;99.90;;;;;;5017945;28;20025;-50
2024/01/22 12:29:25;;;;;;;7.43;1.55;;;14.00;99.90;;;;;;5021322;28;20021;-47
2024/01/22 12:32:04;;;;;;;9.07;1.80;;;14.50;99.90;;;;;;5025246;28;20083;-54
2024/01/22 12:34:30;;;;;;;6.38;1.25;;;14.40;99.90;;;;;;5027894;28;20527;-49
2024/01/22 12:36:56;;;;;;;9.73;2.08;;;14.20;99.90;;;;;;5022047;28;20060;-50